sensor_id;sensor_type;location;lat;lon;timestamp;pressure;altitude;pressure_sealevel;temperature;humidity
49973;BME280;35865;49.798;10.968;2022-09-09T00:02:12;97817.66;;;14.55;100.00
49973;BME280;35865;49.798;10.968;2022-09-09T00:04:46;97820.41;;;14.50;100.00
49973;BME280;35865;49.798;10.968;2022-09-09T00:07:21;97814.56;;;14.43;100.00
49973;BME280;35865;49.798;10.968;2022-09-09T00:09:57;97811.69;;;14.39;100.00
49973;BME280;35865;49.798;10.968;2022-09-09T00:12:32;97813.03;;;14.36;100.00
49973;BME280;35865;49.798;10.968;2022-09-09T00:15:02;97810.69;;;14.30;100.00
49973;BME280;35865;49.798;10.968;2022-09-09T00:17:35;97817.94;;;14.24;100.00
49973;BME280;35865;49.798;10.968;2022-09-09T00:20:12;97817.50;;;14.12;100.00
49973;BME280;35865;49.798;10.968;2022-09-09T00:22:44;97815.34;;;14.14;100.00
49973;BME280;35865;49.798;10.968;2022-09-09T00:25:16;97820.66;;;14.14;100.00
49973;BME280;35865;49.798;10.968;2022-09-09T00:27:47;97813.47;;;14.14;100.00
49973;BME280;35865;49.798;10.968;2022-09-09T00:30:17;97813.47;;;14.14;100.00
49973;BME280;35865;49.798;10.968;2022-09-09T00:32:45;97805.78;;;14.08;100.00
49973;BME280;35865;49.798;10.968;2022-09-09T00:35:18;97817.56;;;14.01;100.00
49973;BME280;35865;49.798;10.968;2022-09-09T00:37:50;97813.56;;;13.99;100.00
49973;BME280;35865;49.798;10.968;2022-09-09T00:40:23;97816.00;;;13.95;100.00
49973;BME280;35865;49.798;10.968;2022-09-09T00:42:58;97817.03;;;14.05;100.00
49973;BME280;35865;49.798;10.968;2022-09-09T00:45:46;97815.63;;;14.12;100.00
49973;BME280;35865;49.798;10.968;2022-09-09T00:48:20;97821.16;;;14.21;100.00
49973;BME280;35865;49.798;10.968;2022-09-09T00:50:53;97815.22;;;14.29;100.00
49973;BME280;35865;49.798;10.968;2022-09-09T00:53:30;97818.09;;;14.38;100.00
49973;BME280;35865;49.798;10.968;2022-09-09T00:56:09;97817.22;;;14.43;100.00
49973;BME280;35865;49.798;10.968;2022-09-09T00:58:37;97806.81;;;14.46;100.00
49973;BME280;35865;49.798;10.968;2022-09-09T01:01:06;97809.75;;;14.45;100.00
49973;BME280;35865;49.798;10.968;2022-09-09T01:03:36;97808.44;;;14.42;100.00
49973;BME280;35865;49.798;10.968;2022-09-09T01:06:13;97805.06;;;14.31;100.00
49973;BME280;35865;49.798;10.968;2022-09-09T01:09:00;97805.38;;;14.25;100.00
49973;BME280;35865;49.798;10.968;2022-09-09T01:11:32;97809.66;;;14.26;100.00
49973;BME280;35865;49.798;10.968;2022-09-09T01:14:13;97811.59;;;14.15;100.00
49973;BME280;35865;49.798;10.968;2022-09-09T01:16:42;97808.00;;;14.00;100.00
49973;BME280;35865;49.798;10.968;2022-09-09T01:19:17;97809.63;;;13.86;100.00
49973;BME280;35865;49.798;10.968;2022-09-09T01:21:50;97798.81;;;13.67;100.00
49973;BME280;35865;49.798;10.968;2022-09-09T01:24:27;97811.19;;;13.52;100.00
49973;BME280;35865;49.798;10.968;2022-09-09T01:27:00;97810.44;;;13.36;100.00
49973;BME280;35865;49.798;10.968;2022-09-09T01:29:27;97815.25;;;13.34;100.00
49973;BME280;35865;49.798;10.968;2022-09-09T01:31:55;97819.03;;;13.23;100.00
49973;BME280;35865;49.798;10.968;2022-09-09T01:34:24;97813.75;;;13.13;100.00
49973;BME280;35865;49.798;10.968;2022-09-09T01:36:55;97809.50;;;13.01;100.00
49973;BME280;35865;49.798;10.968;2022-09-09T01:39:24;97819.38;;;12.91;100.00
49973;BME280;35865;49.798;10.968;2022-09-09T01:41:51;97831.34;;;12.93;100.00
49973;BME280;35865;49.798;10.968;2022-09-09T01:44:19;97825.53;;;12.91;100.00
49973;BME280;35865;49.798;10.968;2022-09-09T01:46:46;97824.75;;;12.85;100.00
49973;BME280;35865;49.798;10.968;2022-09-09T01:49:13;97827.69;;;12.79;100.00
49973;BME280;35865;49.798;10.968;2022-09-09T01:51:40;97822.34;;;12.79;100.00
49973;BME280;35865;49.798;10.968;2022-09-09T01:54:08;97826.91;;;12.73;100.00
49973;BME280;35865;49.798;10.968;2022-09-09T01:56:41;97829.28;;;12.75;100.00
49973;BME280;35865;49.798;10.968;2022-09-09T01:59:23;97822.63;;;12.77;100.00
49973;BME280;35865;49.798;10.968;2022-09-09T02:02:00;97831.94;;;12.80;100.00
49973;BME280;35865;49.798;10.968;2022-09-09T02:04:36;97828.72;;;12.83;100.00
49973;BME280;35865;49.798;10.968;2022-09-09T02:07:11;97823.69;;;12.81;100.00
49973;BME280;35865;49.798;10.968;2022-09-09T02:09:44;97822.31;;;12.89;100.00
49973;BME280;35865;49.798;10.968;2022-09-09T02:12:14;97824.97;;;12.94;100.00
49973;BME280;35865;49.798;10.968;2022-09-09T02:14:48;97833.50;;;12.96;100.00
49973;BME280;35865;49.798;10.968;2022-09-09T02:17:20;97828.16;;;13.01;100.00
49973;BME280;35865;49.798;10.968;2022-09-09T02:19:56;97833.72;;;13.05;100.00
49973;BME280;35865;49.798;10.968;2022-09-09T02:22:27;97834.50;;;13.11;100.00
49973;BME280;35865;49.798;10.968;2022-09-09T02:24:57;97835.25;;;13.32;100.00
49973;BME280;35865;49.798;10.968;2022-09-09T02:27:25;97841.50;;;13.62;100.00
49973;BME280;35865;49.798;10.968;2022-09-09T02:29:55;97829.94;;;13.77;100.00
49973;BME280;35865;49.798;10.968;2022-09-09T02:32:23;97833.09;;;13.84;100.00
49973;BME280;35865;49.798;10.968;2022-09-09T02:34:54;97828.53;;;13.95;100.00
49973;BME280;35865;49.798;10.968;2022-09-09T02:37:25;97829.59;;;13.94;100.00
49973;BME280;35865;49.798;10.968;2022-09-09T02:39:54;97824.75;;;14.06;100.00
49973;BME280;35865;49.798;10.968;2022-09-09T02:42:21;97824.44;;;14.13;100.00
49973;BME280;35865;49.798;10.968;2022-09-09T02:44:49;97827.88;;;14.13;100.00
49973;BME280;35865;49.798;10.968;2022-09-09T02:47:26;97822.84;;;14.12;100.00
49973;BME280;35865;49.798;10.968;2022-09-09T02:50:07;97820.38;;;14.15;100.00
49973;BME280;35865;49.798;10.968;2022-09-09T02:52:45;97817.47;;;14.17;100.00
49973;BME280;35865;49.798;10.968;2022-09-09T02:55:17;97813.66;;;14.23;100.00
49973;BME280;35865;49.798;10.968;2022-09-09T02:57:47;97819.75;;;14.29;100.00
49973;BME280;35865;49.798;10.968;2022-09-09T03:00:14;97815.69;;;14.36;100.00
49973;BME280;35865;49.798;10.968;2022-09-09T03:02:42;97819.69;;;14.39;100.00
49973;BME280;35865;49.798;10.968;2022-09-09T03:05:10;97819.41;;;14.41;100.00
49973;BME280;35865;49.798;10.968;2022-09-09T03:07:38;97811.63;;;14.44;100.00
49973;BME280;35865;49.798;10.968;2022-09-09T03:10:06;97815.56;;;14.52;100.00
49973;BME280;35865;49.798;10.968;2022-09-09T03:12:33;97806.19;;;14.54;100.00
49973;BME280;35865;49.798;10.968;2022-09-09T03:14:59;97809.91;;;14.59;100.00
49973;BME280;35865;49.798;10.968;2022-09-09T03:17:26;97810.19;;;14.57;100.00
49973;BME280;35865;49.798;10.968;2022-09-09T03:19:54;97809.84;;;14.64;100.00
49973;BME280;35865;49.798;10.968;2022-09-09T03:22:23;97808.50;;;14.66;100.00
49973;BME280;35865;49.798;10.968;2022-09-09T03:24:50;97803.09;;;14.71;100.00
49973;BME280;35865;49.798;10.968;2022-09-09T03:27:17;97802.88;;;14.68;100.00
49973;BME280;35865;49.798;10.968;2022-09-09T03:29:44;97802.59;;;14.69;100.00
49973;BME280;35865;49.798;10.968;2022-09-09T03:32:11;97798.31;;;14.68;100.00
49973;BME280;35865;49.798;10.968;2022-09-09T03:34:37;97796.97;;;14.71;100.00
49973;BME280;35865;49.798;10.968;2022-09-09T03:37:06;97793.78;;;14.69;100.00
49973;BME280;35865;49.798;10.968;2022-09-09T03:39:33;97790.03;;;14.70;100.00
49973;BME280;35865;49.798;10.968;2022-09-09T03:41:59;97788.16;;;14.70;100.00
49973;BME280;35865;49.798;10.968;2022-09-09T03:44:29;97790.31;;;14.68;100.00
49973;BME280;35865;49.798;10.968;2022-09-09T03:46:55;97782.84;;;14.70;100.00
49973;BME280;35865;49.798;10.968;2022-09-09T03:49:22;97776.19;;;14.68;100.00
49973;BME280;35865;49.798;10.968;2022-09-09T03:51:49;97772.19;;;14.65;100.00
49973;BME280;35865;49.798;10.968;2022-09-09T03:54:17;97778.16;;;14.57;100.00
49973;BME280;35865;49.798;10.968;2022-09-09T03:56:43;97772.38;;;14.50;100.00
49973;BME280;35865;49.798;10.968;2022-09-09T03:59:10;97772.41;;;14.45;100.00
49973;BME280;35865;49.798;10.968;2022-09-09T04:01:37;97787.84;;;14.48;100.00
49973;BME280;35865;49.798;10.968;2022-09-09T04:04:04;97795.56;;;14.49;100.00
49973;BME280;35865;49.798;10.968;2022-09-09T04:06:31;97792.81;;;14.60;100.00
49973;BME280;35865;49.798;10.968;2022-09-09T04:08:57;97790.31;;;14.68;100.00
49973;BME280;35865;49.798;10.968;2022-09-09T04:11:25;97795.03;;;14.77;100.00
49973;BME280;35865;49.798;10.968;2022-09-09T04:13:51;97789.13;;;14.80;100.00
49973;BME280;35865;49.798;10.968;2022-09-09T04:16:18;97780.38;;;14.74;100.00
49973;BME280;35865;49.798;10.968;2022-09-09T04:18:45;97785.94;;;14.78;100.00
49973;BME280;35865;49.798;10.968;2022-09-09T04:21:11;97777.16;;;14.77;100.00
49973;BME280;35865;49.798;10.968;2022-09-09T04:23:38;97789.94;;;14.80;100.00
49973;BME280;35865;49.798;10.968;2022-09-09T04:26:05;97784.34;;;14.77;100.00
49973;BME280;35865;49.798;10.968;2022-09-09T04:28:35;97792.88;;;14.79;100.00
49973;BME280;35865;49.798;10.968;2022-09-09T04:31:06;97788.63;;;14.78;100.00
49973;BME280;35865;49.798;10.968;2022-09-09T04:33:34;97792.31;;;14.82;100.00
49973;BME280;35865;49.798;10.968;2022-09-09T04:36:01;97789.13;;;14.80;100.00
49973;BME280;35865;49.798;10.968;2022-09-09T04:38:27;97796.88;;;14.81;100.00
49973;BME280;35865;49.798;10.968;2022-09-09T04:40:54;97792.31;;;14.82;100.00
49973;BME280;35865;49.798;10.968;2022-09-09T04:43:21;97788.50;;;14.88;100.00
49973;BME280;35865;49.798;10.968;2022-09-09T04:45:51;97784.81;;;14.84;100.00
49973;BME280;35865;49.798;10.968;2022-09-09T04:48:18;97779.25;;;14.80;100.00
49973;BME280;35865;49.798;10.968;2022-09-09T04:50:54;97785.66;;;14.79;100.00
49973;BME280;35865;49.798;10.968;2022-09-09T04:53:20;97789.97;;;14.75;100.00
49973;BME280;35865;49.798;10.968;2022-09-09T04:55:47;97800.94;;;14.74;100.00
49973;BME280;35865;49.798;10.968;2022-09-09T04:58:14;97810.84;;;14.73;100.00
49973;BME280;35865;49.798;10.968;2022-09-09T05:00:40;97804.22;;;14.65;100.00
49973;BME280;35865;49.798;10.968;2022-09-09T05:03:08;97814.38;;;14.63;100.00
49973;BME280;35865;49.798;10.968;2022-09-09T05:05:35;97812.28;;;14.60;100.00
49973;BME280;35865;49.798;10.968;2022-09-09T05:08:02;97816.00;;;14.59;100.00
49973;BME280;35865;49.798;10.968;2022-09-09T05:10:29;97817.28;;;14.67;100.00
49973;BME280;35865;49.798;10.968;2022-09-09T05:12:55;97818.06;;;14.67;100.00
49973;BME280;35865;49.798;10.968;2022-09-09T05:15:22;97825.47;;;14.76;100.00
49973;BME280;35865;49.798;10.968;2022-09-09T05:17:48;97832.06;;;14.83;100.00
49973;BME280;35865;49.798;10.968;2022-09-09T05:20:16;97830.72;;;14.86;100.00
49973;BME280;35865;49.798;10.968;2022-09-09T05:22:42;97829.06;;;14.90;100.00
49973;BME280;35865;49.798;10.968;2022-09-09T05:25:09;97838.59;;;14.96;100.00
49973;BME280;35865;49.798;10.968;2022-09-09T05:27:35;97845.94;;;15.10;100.00
49973;BME280;35865;49.798;10.968;2022-09-09T05:30:03;97844.53;;;15.17;100.00
49973;BME280;35865;49.798;10.968;2022-09-09T05:32:30;97840.72;;;15.23;100.00
49973;BME280;35865;49.798;10.968;2022-09-09T05:34:59;97836.38;;;15.28;100.00
49973;BME280;35865;49.798;10.968;2022-09-09T05:37:27;97832.44;;;15.25;100.00
49973;BME280;35865;49.798;10.968;2022-09-09T05:39:55;97829.69;;;15.30;100.00
49973;BME280;35865;49.798;10.968;2022-09-09T05:42:21;97827.00;;;15.35;100.00
49973;BME280;35865;49.798;10.968;2022-09-09T05:44:48;97827.91;;;15.50;100.00
49973;BME280;35865;49.798;10.968;2022-09-09T05:47:16;97836.84;;;15.59;100.00
49973;BME280;35865;49.798;10.968;2022-09-09T05:49:42;97840.75;;;15.67;100.00
49973;BME280;35865;49.798;10.968;2022-09-09T05:52:09;97841.00;;;15.70;100.00
49973;BME280;35865;49.798;10.968;2022-09-09T05:54:37;97841.63;;;15.81;100.00
49973;BME280;35865;49.798;10.968;2022-09-09T05:57:04;97842.38;;;15.87;100.00
49973;BME280;35865;49.798;10.968;2022-09-09T05:59:31;97843.94;;;15.88;100.00
49973;BME280;35865;49.798;10.968;2022-09-09T06:01:57;97845.75;;;15.93;100.00
49973;BME280;35865;49.798;10.968;2022-09-09T06:04:24;97831.50;;;15.97;100.00
49973;BME280;35865;49.798;10.968;2022-09-09T06:06:50;97832.09;;;15.94;100.00
49973;BME280;35865;49.798;10.968;2022-09-09T06:09:17;97835.06;;;15.93;100.00
49973;BME280;35865;49.798;10.968;2022-09-09T06:11:45;97833.03;;;16.03;100.00
49973;BME280;35865;49.798;10.968;2022-09-09T06:14:11;97831.81;;;15.96;100.00
49973;BME280;35865;49.798;10.968;2022-09-09T06:16:38;97836.78;;;16.02;100.00
49973;BME280;35865;49.798;10.968;2022-09-09T06:19:04;97826.97;;;15.98;100.00
49973;BME280;35865;49.798;10.968;2022-09-09T06:21:33;97831.84;;;16.10;100.00
49973;BME280;35865;49.798;10.968;2022-09-09T06:24:01;97833.38;;;16.16;100.00
49973;BME280;35865;49.798;10.968;2022-09-09T06:26:30;97838.16;;;16.19;100.00
49973;BME280;35865;49.798;10.968;2022-09-09T06:28:59;97833.63;;;16.33;100.00
49973;BME280;35865;49.798;10.968;2022-09-09T06:31:28;97825.09;;;16.31;100.00
49973;BME280;35865;49.798;10.968;2022-09-09T06:33:57;97832.56;;;16.48;100.00
49973;BME280;35865;49.798;10.968;2022-09-09T06:36:25;97830.38;;;16.69;100.00
49973;BME280;35865;49.798;10.968;2022-09-09T06:38:52;97826.84;;;16.88;99.70
49973;BME280;35865;49.798;10.968;2022-09-09T06:41:20;97826.66;;;16.98;99.24
49973;BME280;35865;49.798;10.968;2022-09-09T06:43:47;97840.53;;;17.42;98.53
49973;BME280;35865;49.798;10.968;2022-09-09T06:46:16;97827.19;;;17.65;96.21
49973;BME280;35865;49.798;10.968;2022-09-09T06:48:44;97833.25;;;18.07;94.32
49973;BME280;35865;49.798;10.968;2022-09-09T06:51:12;97829.19;;;18.32;91.60
49973;BME280;35865;49.798;10.968;2022-09-09T06:53:41;97825.53;;;18.05;89.70
49973;BME280;35865;49.798;10.968;2022-09-09T06:56:19;97826.84;;;18.17;89.30
49973;BME280;35865;49.798;10.968;2022-09-09T06:58:46;97832.72;;;18.19;88.93
49973;BME280;35865;49.798;10.968;2022-09-09T07:01:16;97836.63;;;18.35;89.02
49973;BME280;35865;49.798;10.968;2022-09-09T07:03:46;97837.84;;;18.52;87.66
49973;BME280;35865;49.798;10.968;2022-09-09T07:06:14;97845.72;;;18.48;86.94
49973;BME280;35865;49.798;10.968;2022-09-09T07:08:42;97840.13;;;18.67;86.60
49973;BME280;35865;49.798;10.968;2022-09-09T07:11:09;97843.38;;;18.87;85.84
49973;BME280;35865;49.798;10.968;2022-09-09T07:13:36;97846.25;;;19.13;85.44
49973;BME280;35865;49.798;10.968;2022-09-09T07:16:03;97850.34;;;19.19;85.70
49973;BME280;35865;49.798;10.968;2022-09-09T07:18:31;97840.50;;;19.55;83.86
49973;BME280;35865;49.798;10.968;2022-09-09T07:20:58;97837.47;;;19.48;82.90
49973;BME280;35865;49.798;10.968;2022-09-09T07:23:25;97843.66;;;19.57;82.73
49973;BME280;35865;49.798;10.968;2022-09-09T07:25:51;97843.81;;;19.52;82.86
49973;BME280;35865;49.798;10.968;2022-09-09T07:28:18;97842.22;;;19.42;82.08
49973;BME280;35865;49.798;10.968;2022-09-09T07:30:53;97844.00;;;19.90;82.52
49973;BME280;35865;49.798;10.968;2022-09-09T07:33:19;97852.59;;;20.19;81.36
49973;BME280;35865;49.798;10.968;2022-09-09T07:35:47;97839.59;;;20.38;79.90
49973;BME280;35865;49.798;10.968;2022-09-09T07:38:14;97841.88;;;20.84;78.10
49973;BME280;35865;49.798;10.968;2022-09-09T07:40:40;97834.41;;;20.98;76.00
49973;BME280;35865;49.798;10.968;2022-09-09T07:43:07;97838.22;;;20.97;75.00
49973;BME280;35865;49.798;10.968;2022-09-09T07:45:34;97837.72;;;20.95;74.52
49973;BME280;35865;49.798;10.968;2022-09-09T07:48:01;97829.53;;;20.74;74.12
49973;BME280;35865;49.798;10.968;2022-09-09T07:50:27;97829.47;;;21.00;73.53
49973;BME280;35865;49.798;10.968;2022-09-09T07:52:55;97829.13;;;21.02;72.75
49973;BME280;35865;49.798;10.968;2022-09-09T07:55:22;97831.44;;;20.73;73.65
49973;BME280;35865;49.798;10.968;2022-09-09T07:57:52;97832.97;;;20.92;73.25
49973;BME280;35865;49.798;10.968;2022-09-09T08:00:19;97841.34;;;21.38;72.23
49973;BME280;35865;49.798;10.968;2022-09-09T08:02:47;97841.28;;;21.76;70.80
49973;BME280;35865;49.798;10.968;2022-09-09T08:05:14;97842.56;;;21.70;69.89
49973;BME280;35865;49.798;10.968;2022-09-09T08:07:41;97844.41;;;21.78;68.97
49973;BME280;35865;49.798;10.968;2022-09-09T08:10:10;97834.31;;;22.18;67.74
49973;BME280;35865;49.798;10.968;2022-09-09T08:12:40;97826.81;;;22.69;64.82
49973;BME280;35865;49.798;10.968;2022-09-09T08:15:07;97841.41;;;23.02;65.61
49973;BME280;35865;49.798;10.968;2022-09-09T08:17:33;97828.41;;;22.70;64.79
49973;BME280;35865;49.798;10.968;2022-09-09T08:19:59;97835.44;;;22.84;65.15
49973;BME280;35865;49.798;10.968;2022-09-09T08:22:30;97839.16;;;22.58;64.00
49973;BME280;35865;49.798;10.968;2022-09-09T08:24:56;97855.31;;;23.62;63.02
49973;BME280;35865;49.798;10.968;2022-09-09T08:27:24;97849.91;;;24.03;62.25
49973;BME280;35865;49.798;10.968;2022-09-09T08:29:50;97854.44;;;24.83;59.86
49973;BME280;35865;49.798;10.968;2022-09-09T08:32:18;97852.63;;;25.20;57.54
49973;BME280;35865;49.798;10.968;2022-09-09T08:34:45;97855.81;;;25.57;57.22
49973;BME280;35865;49.798;10.968;2022-09-09T08:37:11;97836.50;;;25.11;55.63
49973;BME280;35865;49.798;10.968;2022-09-09T08:39:38;97849.53;;;25.05;56.34
49973;BME280;35865;49.798;10.968;2022-09-09T08:42:29;97840.97;;;25.19;55.81
49973;BME280;35865;49.798;10.968;2022-09-09T08:45:20;97855.22;;;25.32;56.11
49973;BME280;35865;49.798;10.968;2022-09-09T08:48:06;97863.31;;;25.64;55.94
49973;BME280;35865;49.798;10.968;2022-09-09T08:50:38;97853.53;;;25.43;55.86
49973;BME280;35865;49.798;10.968;2022-09-09T08:53:11;97845.91;;;25.13;55.25
49973;BME280;35865;49.798;10.968;2022-09-09T08:55:45;97851.03;;;25.34;54.99
49973;BME280;35865;49.798;10.968;2022-09-09T08:58:17;97841.28;;;24.70;55.38
49973;BME280;35865;49.798;10.968;2022-09-09T09:01:00;97841.91;;;24.95;55.39
49973;BME280;35865;49.798;10.968;2022-09-09T09:03:35;97854.09;;;25.33;55.95
49973;BME280;35865;49.798;10.968;2022-09-09T09:06:13;97843.59;;;25.31;55.14
49973;BME280;35865;49.798;10.968;2022-09-09T09:08:49;97840.06;;;25.47;55.62
49973;BME280;35865;49.798;10.968;2022-09-09T09:11:18;97837.69;;;25.61;54.10
49973;BME280;35865;49.798;10.968;2022-09-09T09:13:51;97845.09;;;25.64;55.28
49973;BME280;35865;49.798;10.968;2022-09-09T09:16:28;97844.31;;;25.99;54.42
49973;BME280;35865;49.798;10.968;2022-09-09T09:18:58;97819.94;;;25.32;53.33
49973;BME280;35865;49.798;10.968;2022-09-09T09:21:35;97838.09;;;26.38;53.40
49973;BME280;35865;49.798;10.968;2022-09-09T09:24:09;97843.09;;;26.79;52.80
49973;BME280;35865;49.798;10.968;2022-09-09T09:26:42;97835.78;;;26.83;53.25
49973;BME280;35865;49.798;10.968;2022-09-09T09:29:12;97830.19;;;26.52;52.38
49973;BME280;35865;49.798;10.968;2022-09-09T09:31:42;97836.06;;;26.55;52.90
49973;BME280;35865;49.798;10.968;2022-09-09T09:34:09;97825.63;;;26.37;51.94
49973;BME280;35865;49.798;10.968;2022-09-09T09:36:41;97826.47;;;25.63;53.39
49973;BME280;35865;49.798;10.968;2022-09-09T09:39:09;97817.16;;;25.64;53.74
49973;BME280;35865;49.798;10.968;2022-09-09T09:41:38;97829.94;;;25.99;54.27
49973;BME280;35865;49.798;10.968;2022-09-09T09:44:23;97824.34;;;26.50;53.41
49973;BME280;35865;49.798;10.968;2022-09-09T09:46:50;97814.47;;;26.23;52.43
49973;BME280;35865;49.798;10.968;2022-09-09T09:49:16;97806.25;;;25.99;52.76
49973;BME280;35865;49.798;10.968;2022-09-09T09:51:43;97787.47;;;25.91;52.22
49973;BME280;35865;49.798;10.968;2022-09-09T09:54:16;97804.13;;;26.51;51.67
49973;BME280;35865;49.798;10.968;2022-09-09T09:56:45;97810.03;;;27.27;50.22
49973;BME280;35865;49.798;10.968;2022-09-09T09:59:20;97783.75;;;26.42;50.00
49973;BME280;35865;49.798;10.968;2022-09-09T10:01:48;97799.31;;;27.34;50.45
49973;BME280;35865;49.798;10.968;2022-09-09T10:04:16;97788.06;;;27.12;49.72
49973;BME280;35865;49.798;10.968;2022-09-09T10:06:45;97792.31;;;26.63;50.25
49973;BME280;35865;49.798;10.968;2022-09-09T10:09:21;97772.44;;;25.42;51.56
49973;BME280;35865;49.798;10.968;2022-09-09T10:11:53;97779.50;;;25.11;53.38
49973;BME280;35865;49.798;10.968;2022-09-09T10:14:25;97780.94;;;25.76;53.21
49973;BME280;35865;49.798;10.968;2022-09-09T10:17:06;97782.06;;;25.20;52.83
49973;BME280;35865;49.798;10.968;2022-09-09T10:19:37;97781.91;;;24.80;54.21
49973;BME280;35865;49.798;10.968;2022-09-09T10:22:14;97778.28;;;24.92;55.12
49973;BME280;35865;49.798;10.968;2022-09-09T10:25:01;97782.91;;;25.95;53.66
49973;BME280;35865;49.798;10.968;2022-09-09T10:27:38;97785.81;;;26.48;51.90
49973;BME280;35865;49.798;10.968;2022-09-09T10:30:12;97769.50;;;26.48;51.22
49973;BME280;35865;49.798;10.968;2022-09-09T10:32:48;97780.09;;;27.27;50.49
49973;BME280;35865;49.798;10.968;2022-09-09T10:35:26;97771.84;;;27.77;50.54
49973;BME280;35865;49.798;10.968;2022-09-09T10:40:59;97754.41;;;27.51;48.12
49973;BME280;35865;49.798;10.968;2022-09-09T10:43:39;97751.53;;;27.13;47.78
49973;BME280;35865;49.798;10.968;2022-09-09T10:46:14;97744.69;;;26.07;49.86
49973;BME280;35865;49.798;10.968;2022-09-09T10:48:56;97743.81;;;25.64;51.36
49973;BME280;35865;49.798;10.968;2022-09-09T10:51:33;97743.03;;;25.63;51.26
49973;BME280;35865;49.798;10.968;2022-09-09T10:54:25;97746.88;;;25.23;52.26
49973;BME280;35865;49.798;10.968;2022-09-09T10:57:00;97741.03;;;24.73;52.79
49973;BME280;35865;49.798;10.968;2022-09-09T10:59:29;97739.44;;;25.04;52.90
49973;BME280;35865;49.798;10.968;2022-09-09T11:01:59;97741.63;;;24.82;52.98
49973;BME280;35865;49.798;10.968;2022-09-09T11:04:31;97736.56;;;24.81;52.13
49973;BME280;35865;49.798;10.968;2022-09-09T11:07:02;97750.97;;;25.17;52.25
49973;BME280;35865;49.798;10.968;2022-09-09T11:09:36;97746.53;;;25.64;49.97
49973;BME280;35865;49.798;10.968;2022-09-09T11:12:05;97724.09;;;25.12;50.05
49973;BME280;35865;49.798;10.968;2022-09-09T11:14:38;97736.06;;;24.75;51.00
49973;BME280;35865;49.798;10.968;2022-09-09T11:17:10;97737.53;;;24.57;52.13
49973;BME280;35865;49.798;10.968;2022-09-09T11:19:41;97748.16;;;24.33;53.27
49973;BME280;35865;49.798;10.968;2022-09-09T11:22:16;97736.53;;;24.33;52.66
49973;BME280;35865;49.798;10.968;2022-09-09T11:24:46;97743.84;;;24.77;52.42
49973;BME280;35865;49.798;10.968;2022-09-09T11:27:19;97760.06;;;25.25;51.93
49973;BME280;35865;49.798;10.968;2022-09-09T11:30:15;97737.63;;;24.76;52.12
49973;BME280;35865;49.798;10.968;2022-09-09T11:33:12;97738.53;;;25.51;51.22
49973;BME280;35865;49.798;10.968;2022-09-09T11:35:58;97735.25;;;25.81;49.83
49973;BME280;35865;49.798;10.968;2022-09-09T11:38:32;97725.13;;;25.59;50.06
49973;BME280;35865;49.798;10.968;2022-09-09T11:41:05;97731.69;;;25.77;49.42
49973;BME280;35865;49.798;10.968;2022-09-09T11:43:40;97730.09;;;26.39;49.67
49973;BME280;35865;49.798;10.968;2022-09-09T11:46:08;97724.75;;;26.42;48.42
49973;BME280;35865;49.798;10.968;2022-09-09T11:48:37;97716.78;;;26.30;48.44
49973;BME280;35865;49.798;10.968;2022-09-09T11:51:07;97721.03;;;26.77;48.12
49973;BME280;35865;49.798;10.968;2022-09-09T11:53:35;97720.94;;;26.70;47.52
49973;BME280;35865;49.798;10.968;2022-09-09T11:56:27;97717.06;;;27.25;46.45
49973;BME280;35865;49.798;10.968;2022-09-09T11:58:56;97715.94;;;27.29;46.90
49973;BME280;35865;49.798;10.968;2022-09-09T12:01:29;97700.63;;;27.44;45.60
49973;BME280;35865;49.798;10.968;2022-09-09T12:07:22;97683.03;;;26.11;45.93
49973;BME280;35865;49.798;10.968;2022-09-09T12:09:52;97698.22;;;25.73;48.08
49973;BME280;35865;49.798;10.968;2022-09-09T12:12:27;97699.91;;;25.23;48.86
49973;BME280;35865;49.798;10.968;2022-09-09T12:14:56;97705.56;;;25.14;48.90
49973;BME280;35865;49.798;10.968;2022-09-09T12:17:25;97714.75;;;25.09;49.26
49973;BME280;35865;49.798;10.968;2022-09-09T12:20:00;97715.59;;;24.62;49.79
49973;BME280;35865;49.798;10.968;2022-09-09T12:22:37;97735.59;;;23.97;51.00
49973;BME280;35865;49.798;10.968;2022-09-09T12:25:16;97728.56;;;23.39;51.64
49973;BME280;35865;49.798;10.968;2022-09-09T12:27:56;97727.84;;;22.19;53.02
49973;BME280;35865;49.798;10.968;2022-09-09T12:30:29;97745.88;;;21.72;53.88
49973;BME280;35865;49.798;10.968;2022-09-09T12:33:02;97753.97;;;21.51;54.61
49973;BME280;35865;49.798;10.968;2022-09-09T12:35:29;97754.41;;;21.32;55.25
49973;BME280;35865;49.798;10.968;2022-09-09T12:38:00;97746.78;;;21.13;55.36
49973;BME280;35865;49.798;10.968;2022-09-09T12:40:29;97752.47;;;21.11;55.53
49973;BME280;35865;49.798;10.968;2022-09-09T12:42:56;97757.09;;;21.11;56.20
49973;BME280;35865;49.798;10.968;2022-09-09T12:45:25;97743.66;;;21.02;56.72
49973;BME280;35865;49.798;10.968;2022-09-09T12:47:55;97743.56;;;20.81;57.88
49973;BME280;35865;49.798;10.968;2022-09-09T12:50:23;97734.38;;;20.82;59.40
49973;BME280;35865;49.798;10.968;2022-09-09T12:52:52;97751.97;;;20.79;59.97
49973;BME280;35865;49.798;10.968;2022-09-09T12:55:24;97752.25;;;20.57;61.11
49973;BME280;35865;49.798;10.968;2022-09-09T12:57:52;97761.38;;;20.73;62.11
49973;BME280;35865;49.798;10.968;2022-09-09T13:00:21;97777.66;;;20.86;63.24
49973;BME280;35865;49.798;10.968;2022-09-09T13:02:50;97780.88;;;20.70;64.44
49973;BME280;35865;49.798;10.968;2022-09-09T13:05:19;97770.97;;;20.44;65.41
49973;BME280;35865;49.798;10.968;2022-09-09T13:07:46;97778.41;;;20.39;66.15
49973;BME280;35865;49.798;10.968;2022-09-09T13:10:15;97778.06;;;20.58;66.27